This is the latest recevied weather packets stored in our database for station/object DL6MM-4. If no packets are shown the sender has not sent any weather packets the latest 10 day(s).
| Time | Temp. | Humidity | Pressure | Rain* | Wind** | Luminosity | Snow |
|---|---|---|---|---|---|---|---|
| 1777750155 | 16.11° C | 66% | 1013.4 hPa | 0 mm | - | - | - |
| 1777749555 | 16.67° C | 65% | 1013.2 hPa | 0 mm | - | - | - |
| 1777748955 | 16.11° C | 66% | 1013.2 hPa | 0 mm | - | - | - |
| 1777748355 | 16.67° C | 68% | 1013.2 hPa | 0 mm | - | - | - |
| 1777747755 | 17.22° C | 66% | 1013.2 hPa | 0 mm | - | - | - |
| 1777747155 | 18.33° C | 65% | 1013.2 hPa | 0 mm | - | - | - |
| 1777746555 | 18.89° C | 63% | 1013.2 hPa | 0 mm | - | - | - |
| 1777745955 | 18.89° C | 63% | 1013.2 hPa | 0 mm | - | - | - |
| 1777745355 | 20.56° C | 58% | 1013.2 hPa | 0 mm | - | - | - |
| 1777744755 | 21.67° C | 55% | 1013.2 hPa | 0 mm | - | - | - |
| 1777744155 | 23.33° C | 47% | 1013.2 hPa | 0 mm | - | - | - |
| 1777743555 | 24.44° C | 39% | 1013.2 hPa | 0 mm | - | - | - |
| 1777742955 | 25.56° C | 40% | 1013.2 hPa | 0 mm | - | - | - |
| 1777742355 | 25.56° C | 37% | 1013.2 hPa | 0 mm | - | - | - |
| 1777741755 | 26.11° C | 36% | 1013.2 hPa | 0 mm | - | - | - |
| 1777741155 | 26.11° C | 37% | 1013.4 hPa | 0 mm | - | - | - |
| 1777740555 | 26.11° C | 38% | 1013.5 hPa | 0 mm | - | - | - |
| 1777739955 | 25.56° C | 36% | 1013.6 hPa | 0 mm | - | - | - |
| 1777739355 | 26.11° C | 38% | 1013.7 hPa | 0 mm | - | - | - |
| 1777738755 | 26.11° C | 37% | 1013.7 hPa | 0 mm | - | - | - |
| 1777738155 | 26.11° C | 37% | 1013.9 hPa | 0 mm | - | - | - |
| 1777737555 | 26.11° C | 36% | 1014.1 hPa | 0 mm | - | - | - |
| 1777736955 | 26.67° C | 36% | 1014.2 hPa | 0 mm | - | - | - |
| 1777736355 | 26.67° C | 38% | 1014.4 hPa | 0 mm | - | - | - |
| 1777735755 | 26.67° C | 37% | 1014.4 hPa | 0 mm | - | - | - |
* Rain latest hour (hover to see other rain measurements)
** Current wind speed in m/s (hover to see current wind gust speed)